sensor_id;sensor_type;location;lat;lon;timestamp;P1;durP1;ratioP1;P2;durP2;ratioP2
79456;SDS011;69494;43.654;3.884;2024-02-15T00:02:01;13.77;;;5.88;;
79456;SDS011;69494;43.654;3.884;2024-02-15T00:04:27;11.55;;;5.57;;
79456;SDS011;69494;43.654;3.884;2024-02-15T00:06:52;10.43;;;4.90;;
79456;SDS011;69494;43.654;3.884;2024-02-15T00:09:18;13.10;;;5.82;;
79456;SDS011;69494;43.654;3.884;2024-02-15T00:11:43;10.45;;;5.35;;
79456;SDS011;69494;43.654;3.884;2024-02-15T00:14:08;13.13;;;5.28;;
79456;SDS011;69494;43.654;3.884;2024-02-15T00:16:34;10.90;;;4.75;;
79456;SDS011;69494;43.654;3.884;2024-02-15T00:19:02;12.23;;;5.30;;
79456;SDS011;69494;43.654;3.884;2024-02-15T00:21:28;14.52;;;5.65;;
79456;SDS011;69494;43.654;3.884;2024-02-15T00:23:53;9.65;;;4.40;;
79456;SDS011;69494;43.654;3.884;2024-02-15T00:26:21;12.27;;;5.90;;
79456;SDS011;69494;43.654;3.884;2024-02-15T00:28:46;11.88;;;5.38;;
79456;SDS011;69494;43.654;3.884;2024-02-15T00:31:13;8.95;;;4.78;;
79456;SDS011;69494;43.654;3.884;2024-02-15T00:33:38;10.77;;;5.07;;
79456;SDS011;69494;43.654;3.884;2024-02-15T00:36:04;12.40;;;5.15;;
79456;SDS011;69494;43.654;3.884;2024-02-15T00:38:31;10.60;;;4.63;;
79456;SDS011;69494;43.654;3.884;2024-02-15T00:40:57;8.90;;;4.28;;
79456;SDS011;69494;43.654;3.884;2024-02-15T00:43:23;8.82;;;4.00;;
79456;SDS011;69494;43.654;3.884;2024-02-15T00:45:49;7.80;;;4.50;;
79456;SDS011;69494;43.654;3.884;2024-02-15T00:48:15;10.90;;;4.82;;
79456;SDS011;69494;43.654;3.884;2024-02-15T00:50:40;9.38;;;4.28;;
79456;SDS011;69494;43.654;3.884;2024-02-15T00:53:05;8.02;;;4.22;;
79456;SDS011;69494;43.654;3.884;2024-02-15T00:55:31;9.30;;;4.10;;
79456;SDS011;69494;43.654;3.884;2024-02-15T00:57:57;10.43;;;4.15;;
79456;SDS011;69494;43.654;3.884;2024-02-15T01:00:22;8.90;;;4.00;;
79456;SDS011;69494;43.654;3.884;2024-02-15T01:02:48;11.05;;;5.18;;
79456;SDS011;69494;43.654;3.884;2024-02-15T01:05:14;11.68;;;4.53;;
79456;SDS011;69494;43.654;3.884;2024-02-15T01:07:43;10.13;;;5.13;;
79456;SDS011;69494;43.654;3.884;2024-02-15T01:10:09;10.10;;;4.53;;
79456;SDS011;69494;43.654;3.884;2024-02-15T01:12:34;9.15;;;4.78;;
79456;SDS011;69494;43.654;3.884;2024-02-15T01:15:00;12.32;;;5.07;;
79456;SDS011;69494;43.654;3.884;2024-02-15T01:17:25;7.20;;;3.63;;
79456;SDS011;69494;43.654;3.884;2024-02-15T01:19:51;13.70;;;4.57;;
79456;SDS011;69494;43.654;3.884;2024-02-15T01:22:18;8.55;;;4.10;;
79456;SDS011;69494;43.654;3.884;2024-02-15T01:24:43;7.43;;;3.42;;
79456;SDS011;69494;43.654;3.884;2024-02-15T01:27:08;11.30;;;3.95;;
79456;SDS011;69494;43.654;3.884;2024-02-15T01:29:35;10.20;;;4.13;;
79456;SDS011;69494;43.654;3.884;2024-02-15T01:32:00;9.45;;;4.13;;
79456;SDS011;69494;43.654;3.884;2024-02-15T01:34:27;9.70;;;3.83;;
79456;SDS011;69494;43.654;3.884;2024-02-15T01:36:52;8.60;;;4.30;;
79456;SDS011;69494;43.654;3.884;2024-02-15T01:39:18;12.32;;;4.50;;
79456;SDS011;69494;43.654;3.884;2024-02-15T01:41:47;11.60;;;4.15;;
79456;SDS011;69494;43.654;3.884;2024-02-15T01:44:13;8.38;;;3.65;;
79456;SDS011;69494;43.654;3.884;2024-02-15T01:46:39;10.75;;;3.72;;
79456;SDS011;69494;43.654;3.884;2024-02-15T01:49:05;8.57;;;3.38;;
79456;SDS011;69494;43.654;3.884;2024-02-15T01:51:33;9.70;;;2.75;;
79456;SDS011;69494;43.654;3.884;2024-02-15T01:54:00;7.38;;;3.03;;
79456;SDS011;69494;43.654;3.884;2024-02-15T01:56:26;7.80;;;2.92;;
79456;SDS011;69494;43.654;3.884;2024-02-15T01:58:53;6.75;;;3.25;;
79456;SDS011;69494;43.654;3.884;2024-02-15T02:01:18;6.53;;;3.00;;
79456;SDS011;69494;43.654;3.884;2024-02-15T02:03:46;10.68;;;3.95;;
79456;SDS011;69494;43.654;3.884;2024-02-15T02:06:11;9.20;;;3.92;;
79456;SDS011;69494;43.654;3.884;2024-02-15T02:08:37;7.60;;;3.40;;
79456;SDS011;69494;43.654;3.884;2024-02-15T02:11:03;9.55;;;3.50;;
79456;SDS011;69494;43.654;3.884;2024-02-15T02:13:29;7.65;;;3.60;;
79456;SDS011;69494;43.654;3.884;2024-02-15T02:15:54;10.55;;;3.80;;
79456;SDS011;69494;43.654;3.884;2024-02-15T02:18:21;8.75;;;2.97;;
79456;SDS011;69494;43.654;3.884;2024-02-15T02:20:49;8.52;;;3.45;;
79456;SDS011;69494;43.654;3.884;2024-02-15T02:23:15;7.93;;;3.97;;
79456;SDS011;69494;43.654;3.884;2024-02-15T02:25:41;8.38;;;3.90;;
79456;SDS011;69494;43.654;3.884;2024-02-15T02:28:08;8.23;;;3.47;;
79456;SDS011;69494;43.654;3.884;2024-02-15T02:30:35;8.93;;;3.78;;
79456;SDS011;69494;43.654;3.884;2024-02-15T02:33:00;8.68;;;4.00;;
79456;SDS011;69494;43.654;3.884;2024-02-15T02:35:26;10.23;;;3.83;;
79456;SDS011;69494;43.654;3.884;2024-02-15T02:37:54;10.23;;;3.95;;
79456;SDS011;69494;43.654;3.884;2024-02-15T02:40:20;10.27;;;3.92;;
79456;SDS011;69494;43.654;3.884;2024-02-15T02:42:51;8.70;;;3.90;;
79456;SDS011;69494;43.654;3.884;2024-02-15T02:45:18;8.15;;;3.72;;
79456;SDS011;69494;43.654;3.884;2024-02-15T02:47:47;9.48;;;3.97;;
79456;SDS011;69494;43.654;3.884;2024-02-15T02:50:13;8.77;;;3.70;;
79456;SDS011;69494;43.654;3.884;2024-02-15T02:52:39;9.88;;;3.70;;
79456;SDS011;69494;43.654;3.884;2024-02-15T02:55:05;10.18;;;4.63;;
79456;SDS011;69494;43.654;3.884;2024-02-15T02:57:33;7.65;;;4.00;;
79456;SDS011;69494;43.654;3.884;2024-02-15T03:00:05;7.32;;;3.75;;
79456;SDS011;69494;43.654;3.884;2024-02-15T03:02:33;12.18;;;4.15;;
79456;SDS011;69494;43.654;3.884;2024-02-15T03:05:01;9.77;;;4.32;;
79456;SDS011;69494;43.654;3.884;2024-02-15T03:07:28;9.90;;;4.22;;
79456;SDS011;69494;43.654;3.884;2024-02-15T03:09:53;9.32;;;4.28;;
79456;SDS011;69494;43.654;3.884;2024-02-15T03:12:19;9.45;;;4.20;;
79456;SDS011;69494;43.654;3.884;2024-02-15T03:14:44;7.05;;;3.25;;
79456;SDS011;69494;43.654;3.884;2024-02-15T03:17:10;9.50;;;4.38;;
79456;SDS011;69494;43.654;3.884;2024-02-15T03:19:36;9.07;;;3.90;;
79456;SDS011;69494;43.654;3.884;2024-02-15T03:22:01;9.30;;;4.05;;
79456;SDS011;69494;43.654;3.884;2024-02-15T03:24:26;11.23;;;4.47;;
79456;SDS011;69494;43.654;3.884;2024-02-15T03:26:52;11.00;;;4.60;;
79456;SDS011;69494;43.654;3.884;2024-02-15T03:29:20;6.95;;;3.47;;
79456;SDS011;69494;43.654;3.884;2024-02-15T03:31:46;8.75;;;4.75;;
79456;SDS011;69494;43.654;3.884;2024-02-15T03:34:13;7.72;;;4.10;;
79456;SDS011;69494;43.654;3.884;2024-02-15T03:36:40;7.57;;;3.58;;
79456;SDS011;69494;43.654;3.884;2024-02-15T03:39:06;12.25;;;3.97;;
79456;SDS011;69494;43.654;3.884;2024-02-15T03:41:33;9.75;;;4.50;;
79456;SDS011;69494;43.654;3.884;2024-02-15T03:43:58;8.82;;;4.43;;
79456;SDS011;69494;43.654;3.884;2024-02-15T03:46:25;11.20;;;4.80;;
79456;SDS011;69494;43.654;3.884;2024-02-15T03:48:50;11.48;;;4.65;;
79456;SDS011;69494;43.654;3.884;2024-02-15T03:51:19;9.02;;;4.40;;
79456;SDS011;69494;43.654;3.884;2024-02-15T03:53:45;9.63;;;4.32;;
79456;SDS011;69494;43.654;3.884;2024-02-15T03:56:11;12.15;;;4.97;;
79456;SDS011;69494;43.654;3.884;2024-02-15T03:58:37;11.15;;;4.05;;
79456;SDS011;69494;43.654;3.884;2024-02-15T04:01:03;9.10;;;5.07;;
79456;SDS011;69494;43.654;3.884;2024-02-15T04:03:31;9.68;;;4.50;;
79456;SDS011;69494;43.654;3.884;2024-02-15T04:05:57;9.15;;;5.07;;
79456;SDS011;69494;43.654;3.884;2024-02-15T04:08:23;6.90;;;3.92;;
79456;SDS011;69494;43.654;3.884;2024-02-15T04:10:48;8.30;;;4.28;;
79456;SDS011;69494;43.654;3.884;2024-02-15T04:13:14;9.88;;;4.68;;
79456;SDS011;69494;43.654;3.884;2024-02-15T04:15:39;8.10;;;4.05;;
79456;SDS011;69494;43.654;3.884;2024-02-15T04:18:06;6.70;;;3.38;;
79456;SDS011;69494;43.654;3.884;2024-02-15T04:20:33;10.20;;;3.80;;
79456;SDS011;69494;43.654;3.884;2024-02-15T04:22:58;8.57;;;4.78;;
79456;SDS011;69494;43.654;3.884;2024-02-15T04:25:24;10.45;;;4.15;;
79456;SDS011;69494;43.654;3.884;2024-02-15T04:27:53;8.02;;;3.97;;
79456;SDS011;69494;43.654;3.884;2024-02-15T04:30:18;9.65;;;4.05;;
79456;SDS011;69494;43.654;3.884;2024-02-15T04:32:45;12.50;;;4.72;;
79456;SDS011;69494;43.654;3.884;2024-02-15T04:35:11;10.05;;;4.43;;
79456;SDS011;69494;43.654;3.884;2024-02-15T04:37:37;9.70;;;3.63;;
79456;SDS011;69494;43.654;3.884;2024-02-15T04:40:03;7.28;;;3.85;;
79456;SDS011;69494;43.654;3.884;2024-02-15T04:42:35;4.25;;;2.08;;
79456;SDS011;69494;43.654;3.884;2024-02-15T04:45:05;9.05;;;3.78;;
79456;SDS011;69494;43.654;3.884;2024-02-15T04:47:34;9.48;;;4.05;;
79456;SDS011;69494;43.654;3.884;2024-02-15T04:50:00;12.10;;;4.80;;
79456;SDS011;69494;43.654;3.884;2024-02-15T04:52:26;7.97;;;3.25;;
79456;SDS011;69494;43.654;3.884;2024-02-15T04:54:51;7.43;;;3.67;;
79456;SDS011;69494;43.654;3.884;2024-02-15T04:57:19;6.25;;;2.90;;
79456;SDS011;69494;43.654;3.884;2024-02-15T04:59:44;10.07;;;3.85;;
79456;SDS011;69494;43.654;3.884;2024-02-15T05:02:12;9.52;;;4.05;;
79456;SDS011;69494;43.654;3.884;2024-02-15T05:04:38;8.23;;;3.33;;
79456;SDS011;69494;43.654;3.884;2024-02-15T05:07:03;6.57;;;2.75;;
79456;SDS011;69494;43.654;3.884;2024-02-15T05:09:29;9.77;;;4.03;;
79456;SDS011;69494;43.654;3.884;2024-02-15T05:11:56;8.48;;;3.35;;
79456;SDS011;69494;43.654;3.884;2024-02-15T05:14:22;8.60;;;3.45;;
79456;SDS011;69494;43.654;3.884;2024-02-15T05:16:48;10.45;;;4.03;;
79456;SDS011;69494;43.654;3.884;2024-02-15T05:19:15;8.23;;;3.92;;
79456;SDS011;69494;43.654;3.884;2024-02-15T05:21:41;9.82;;;3.40;;
79456;SDS011;69494;43.654;3.884;2024-02-15T05:24:10;9.43;;;3.97;;
79456;SDS011;69494;43.654;3.884;2024-02-15T05:26:36;13.75;;;5.30;;
79456;SDS011;69494;43.654;3.884;2024-02-15T05:29:01;9.07;;;3.30;;
79456;SDS011;69494;43.654;3.884;2024-02-15T05:31:27;10.52;;;3.53;;
79456;SDS011;69494;43.654;3.884;2024-02-15T05:33:52;6.88;;;3.30;;
79456;SDS011;69494;43.654;3.884;2024-02-15T05:36:19;10.35;;;3.78;;
79456;SDS011;69494;43.654;3.884;2024-02-15T05:38:51;6.57;;;3.30;;
79456;SDS011;69494;43.654;3.884;2024-02-15T05:41:18;9.40;;;3.72;;
79456;SDS011;69494;43.654;3.884;2024-02-15T05:46:11;8.48;;;3.20;;
79456;SDS011;69494;43.654;3.884;2024-02-15T05:48:37;8.57;;;3.90;;
79456;SDS011;69494;43.654;3.884;2024-02-15T05:51:04;8.32;;;2.95;;
79456;SDS011;69494;43.654;3.884;2024-02-15T05:53:31;9.18;;;3.58;;
79456;SDS011;69494;43.654;3.884;2024-02-15T05:56:01;9.13;;;3.95;;
79456;SDS011;69494;43.654;3.884;2024-02-15T05:58:29;6.35;;;2.80;;
79456;SDS011;69494;43.654;3.884;2024-02-15T06:00:55;6.13;;;3.15;;
79456;SDS011;69494;43.654;3.884;2024-02-15T06:03:26;9.85;;;3.78;;
79456;SDS011;69494;43.654;3.884;2024-02-15T06:05:52;13.50;;;3.88;;
79456;SDS011;69494;43.654;3.884;2024-02-15T06:08:22;8.23;;;3.63;;
79456;SDS011;69494;43.654;3.884;2024-02-15T06:10:48;7.65;;;3.15;;
79456;SDS011;69494;43.654;3.884;2024-02-15T06:13:13;8.32;;;3.47;;
79456;SDS011;69494;43.654;3.884;2024-02-15T06:15:39;8.18;;;3.22;;
79456;SDS011;69494;43.654;3.884;2024-02-15T06:18:04;5.90;;;2.75;;
79456;SDS011;69494;43.654;3.884;2024-02-15T06:20:34;7.22;;;3.50;;
79456;SDS011;69494;43.654;3.884;2024-02-15T06:23:00;8.00;;;3.53;;
79456;SDS011;69494;43.654;3.884;2024-02-15T06:25:26;5.22;;;2.72;;
79456;SDS011;69494;43.654;3.884;2024-02-15T06:27:52;6.57;;;2.70;;
79456;SDS011;69494;43.654;3.884;2024-02-15T06:30:23;7.07;;;3.08;;
79456;SDS011;69494;43.654;3.884;2024-02-15T06:33:07;13.25;;;3.75;;
79456;SDS011;69494;43.654;3.884;2024-02-15T06:36:05;8.95;;;3.38;;
79456;SDS011;69494;43.654;3.884;2024-02-15T06:38:49;11.77;;;3.78;;
79456;SDS011;69494;43.654;3.884;2024-02-15T06:41:44;8.98;;;4.00;;
79456;SDS011;69494;43.654;3.884;2024-02-15T06:44:09;8.10;;;3.95;;
79456;SDS011;69494;43.654;3.884;2024-02-15T06:46:35;7.80;;;3.58;;
79456;SDS011;69494;43.654;3.884;2024-02-15T06:49:00;8.40;;;3.95;;
79456;SDS011;69494;43.654;3.884;2024-02-15T06:51:26;9.18;;;3.42;;
79456;SDS011;69494;43.654;3.884;2024-02-15T06:53:51;11.98;;;4.57;;
79456;SDS011;69494;43.654;3.884;2024-02-15T06:56:20;10.43;;;3.88;;
79456;SDS011;69494;43.654;3.884;2024-02-15T06:58:46;8.77;;;3.30;;
79456;SDS011;69494;43.654;3.884;2024-02-15T07:01:13;6.00;;;2.70;;
79456;SDS011;69494;43.654;3.884;2024-02-15T07:03:41;4.40;;;1.90;;
79456;SDS011;69494;43.654;3.884;2024-02-15T07:06:07;7.30;;;3.35;;
79456;SDS011;69494;43.654;3.884;2024-02-15T07:08:32;10.50;;;2.75;;
79456;SDS011;69494;43.654;3.884;2024-02-15T07:10:57;6.70;;;2.90;;
79456;SDS011;69494;43.654;3.884;2024-02-15T07:13:23;7.93;;;2.67;;
79456;SDS011;69494;43.654;3.884;2024-02-15T07:15:51;9.13;;;2.88;;
79456;SDS011;69494;43.654;3.884;2024-02-15T07:18:17;5.65;;;2.70;;
79456;SDS011;69494;43.654;3.884;2024-02-15T07:20:47;6.68;;;3.20;;
79456;SDS011;69494;43.654;3.884;2024-02-15T07:23:12;10.32;;;3.00;;
79456;SDS011;69494;43.654;3.884;2024-02-15T07:25:38;7.45;;;2.72;;
79456;SDS011;69494;43.654;3.884;2024-02-15T07:28:04;8.50;;;3.25;;
79456;SDS011;69494;43.654;3.884;2024-02-15T07:30:29;5.68;;;2.67;;
79456;SDS011;69494;43.654;3.884;2024-02-15T07:32:56;6.60;;;2.83;;
79456;SDS011;69494;43.654;3.884;2024-02-15T07:35:22;11.57;;;3.08;;
79456;SDS011;69494;43.654;3.884;2024-02-15T07:37:53;10.77;;;3.10;;
79456;SDS011;69494;43.654;3.884;2024-02-15T07:40:23;7.43;;;3.35;;
79456;SDS011;69494;43.654;3.884;2024-02-15T07:42:52;6.35;;;2.88;;
79456;SDS011;69494;43.654;3.884;2024-02-15T07:45:18;7.13;;;3.17;;
79456;SDS011;69494;43.654;3.884;2024-02-15T07:47:43;7.03;;;3.03;;
79456;SDS011;69494;43.654;3.884;2024-02-15T07:50:10;8.38;;;2.58;;
79456;SDS011;69494;43.654;3.884;2024-02-15T07:52:35;8.35;;;3.45;;
79456;SDS011;69494;43.654;3.884;2024-02-15T07:55:01;7.25;;;2.40;;
79456;SDS011;69494;43.654;3.884;2024-02-15T07:57:33;6.40;;;2.53;;
79456;SDS011;69494;43.654;3.884;2024-02-15T07:59:59;2.05;;;0.85;;
79456;SDS011;69494;43.654;3.884;2024-02-15T08:02:25;7.30;;;2.42;;
79456;SDS011;69494;43.654;3.884;2024-02-15T08:04:53;6.65;;;2.03;;
79456;SDS011;69494;43.654;3.884;2024-02-15T08:07:19;6.97;;;2.20;;
79456;SDS011;69494;43.654;3.884;2024-02-15T08:09:45;9.38;;;2.75;;
79456;SDS011;69494;43.654;3.884;2024-02-15T08:12:11;9.82;;;2.80;;
79456;SDS011;69494;43.654;3.884;2024-02-15T08:14:37;6.45;;;2.65;;
79456;SDS011;69494;43.654;3.884;2024-02-15T08:17:04;2.83;;;1.35;;
79456;SDS011;69494;43.654;3.884;2024-02-15T08:19:33;6.15;;;2.42;;
79456;SDS011;69494;43.654;3.884;2024-02-15T08:22:03;7.72;;;2.88;;
79456;SDS011;69494;43.654;3.884;2024-02-15T08:24:31;5.38;;;1.98;;
79456;SDS011;69494;43.654;3.884;2024-02-15T08:26:56;5.93;;;2.13;;
79456;SDS011;69494;43.654;3.884;2024-02-15T08:29:24;4.35;;;1.52;;
79456;SDS011;69494;43.654;3.884;2024-02-15T08:31:49;4.20;;;1.73;;
79456;SDS011;69494;43.654;3.884;2024-02-15T08:34:14;10.85;;;2.38;;
79456;SDS011;69494;43.654;3.884;2024-02-15T08:36:40;4.43;;;2.17;;
79456;SDS011;69494;43.654;3.884;2024-02-15T08:39:05;6.03;;;1.92;;
79456;SDS011;69494;43.654;3.884;2024-02-15T08:41:33;3.67;;;1.55;;
79456;SDS011;69494;43.654;3.884;2024-02-15T08:43:59;7.85;;;2.88;;
79456;SDS011;69494;43.654;3.884;2024-02-15T08:46:26;9.63;;;2.78;;
79456;SDS011;69494;43.654;3.884;2024-02-15T08:48:52;7.80;;;2.85;;
79456;SDS011;69494;43.654;3.884;2024-02-15T08:51:17;4.88;;;1.98;;
79456;SDS011;69494;43.654;3.884;2024-02-15T08:53:45;7.55;;;2.05;;
79456;SDS011;69494;43.654;3.884;2024-02-15T08:56:11;8.50;;;2.03;;
79456;SDS011;69494;43.654;3.884;2024-02-15T08:58:36;7.30;;;2.53;;
79456;SDS011;69494;43.654;3.884;2024-02-15T09:01:03;7.20;;;2.70;;
79456;SDS011;69494;43.654;3.884;2024-02-15T09:03:29;7.72;;;2.60;;
79456;SDS011;69494;43.654;3.884;2024-02-15T09:05:55;11.98;;;3.15;;
79456;SDS011;69494;43.654;3.884;2024-02-15T09:08:20;7.32;;;2.53;;
79456;SDS011;69494;43.654;3.884;2024-02-15T09:10:54;11.57;;;2.22;;
79456;SDS011;69494;43.654;3.884;2024-02-15T09:13:19;6.97;;;2.65;;
79456;SDS011;69494;43.654;3.884;2024-02-15T09:15:45;6.82;;;2.17;;
79456;SDS011;69494;43.654;3.884;2024-02-15T09:20:37;7.70;;;2.28;;
79456;SDS011;69494;43.654;3.884;2024-02-15T09:23:09;6.78;;;2.38;;
79456;SDS011;69494;43.654;3.884;2024-02-15T09:25:39;8.20;;;3.05;;
79456;SDS011;69494;43.654;3.884;2024-02-15T09:28:07;5.57;;;2.72;;
79456;SDS011;69494;43.654;3.884;2024-02-15T09:30:33;9.88;;;3.30;;
79456;SDS011;69494;43.654;3.884;2024-02-15T09:33:00;6.95;;;2.78;;
79456;SDS011;69494;43.654;3.884;2024-02-15T09:35:28;6.97;;;2.63;;
79456;SDS011;69494;43.654;3.884;2024-02-15T09:37:54;4.95;;;2.33;;
79456;SDS011;69494;43.654;3.884;2024-02-15T09:40:21;7.68;;;2.33;;
79456;SDS011;69494;43.654;3.884;2024-02-15T09:42:49;9.90;;;3.05;;
79456;SDS011;69494;43.654;3.884;2024-02-15T09:45:16;7.28;;;2.97;;
79456;SDS011;69494;43.654;3.884;2024-02-15T09:47:43;7.15;;;3.08;;
79456;SDS011;69494;43.654;3.884;2024-02-15T09:50:10;7.28;;;2.35;;
79456;SDS011;69494;43.654;3.884;2024-02-15T09:52:40;4.20;;;1.75;;
79456;SDS011;69494;43.654;3.884;2024-02-15T09:55:09;5.35;;;2.03;;
79456;SDS011;69494;43.654;3.884;2024-02-15T09:57:38;7.68;;;2.67;;
79456;SDS011;69494;43.654;3.884;2024-02-15T10:00:04;7.50;;;2.40;;
79456;SDS011;69494;43.654;3.884;2024-02-15T10:02:33;6.93;;;2.60;;
79456;SDS011;69494;43.654;3.884;2024-02-15T10:05:01;6.07;;;2.10;;
79456;SDS011;69494;43.654;3.884;2024-02-15T10:07:27;6.25;;;2.40;;
79456;SDS011;69494;43.654;3.884;2024-02-15T10:09:52;8.23;;;2.50;;
79456;SDS011;69494;43.654;3.884;2024-02-15T10:12:18;5.20;;;2.22;;
79456;SDS011;69494;43.654;3.884;2024-02-15T10:14:49;7.68;;;2.80;;
79456;SDS011;69494;43.654;3.884;2024-02-15T10:17:20;6.55;;;2.53;;
79456;SDS011;69494;43.654;3.884;2024-02-15T10:20:04;5.22;;;1.92;;
79456;SDS011;69494;43.654;3.884;2024-02-15T10:22:31;11.60;;;3.35;;
79456;SDS011;69494;43.654;3.884;2024-02-15T10:25:12;10.57;;;3.28;;
79456;SDS011;69494;43.654;3.884;2024-02-15T10:27:39;8.70;;;3.28;;
79456;SDS011;69494;43.654;3.884;2024-02-15T10:30:19;5.82;;;2.17;;
79456;SDS011;69494;43.654;3.884;2024-02-15T10:32:45;6.32;;;2.63;;
79456;SDS011;69494;43.654;3.884;2024-02-15T10:35:21;5.05;;;1.83;;
79456;SDS011;69494;43.654;3.884;2024-02-15T10:37:47;7.20;;;2.83;;
79456;SDS011;69494;43.654;3.884;2024-02-15T10:40:17;5.10;;;2.13;;
79456;SDS011;69494;43.654;3.884;2024-02-15T10:42:43;10.90;;;3.10;;
79456;SDS011;69494;43.654;3.884;2024-02-15T10:45:12;6.07;;;2.50;;
79456;SDS011;69494;43.654;3.884;2024-02-15T10:47:39;6.93;;;2.80;;
79456;SDS011;69494;43.654;3.884;2024-02-15T10:50:06;5.25;;;2.67;;
79456;SDS011;69494;43.654;3.884;2024-02-15T10:52:32;9.68;;;2.65;;
79456;SDS011;69494;43.654;3.884;2024-02-15T10:55:04;7.47;;;2.53;;
79456;SDS011;69494;43.654;3.884;2024-02-15T10:57:34;13.35;;;4.13;;
79456;SDS011;69494;43.654;3.884;2024-02-15T11:00:04;10.93;;;3.33;;
79456;SDS011;69494;43.654;3.884;2024-02-15T11:02:42;9.23;;;2.63;;
79456;SDS011;69494;43.654;3.884;2024-02-15T11:05:18;6.82;;;2.95;;
79456;SDS011;69494;43.654;3.884;2024-02-15T11:07:48;9.68;;;2.28;;
79456;SDS011;69494;43.654;3.884;2024-02-15T11:10:14;7.88;;;2.70;;
79456;SDS011;69494;43.654;3.884;2024-02-15T11:12:42;7.78;;;3.10;;
79456;SDS011;69494;43.654;3.884;2024-02-15T11:15:09;8.00;;;2.15;;
79456;SDS011;69494;43.654;3.884;2024-02-15T11:20:02;2.92;;;1.35;;
79456;SDS011;69494;43.654;3.884;2024-02-15T11:22:34;7.28;;;1.95;;
79456;SDS011;69494;43.654;3.884;2024-02-15T11:27:30;2.67;;;1.40;;
79456;SDS011;69494;43.654;3.884;2024-02-15T11:29:57;6.85;;;2.13;;
79456;SDS011;69494;43.654;3.884;2024-02-15T11:32:44;6.13;;;1.65;;
79456;SDS011;69494;43.654;3.884;2024-02-15T11:37:51;6.82;;;1.77;;
79456;SDS011;69494;43.654;3.884;2024-02-15T11:40:27;4.55;;;1.65;;
79456;SDS011;69494;43.654;3.884;2024-02-15T11:42:57;3.42;;;1.35;;
79456;SDS011;69494;43.654;3.884;2024-02-15T11:45:29;6.85;;;1.80;;
79456;SDS011;69494;43.654;3.884;2024-02-15T11:47:58;9.25;;;2.67;;
79456;SDS011;69494;43.654;3.884;2024-02-15T11:50:27;6.22;;;2.08;;
79456;SDS011;69494;43.654;3.884;2024-02-15T11:53:01;3.78;;;1.70;;
79456;SDS011;69494;43.654;3.884;2024-02-15T11:55:31;9.55;;;2.20;;
79456;SDS011;69494;43.654;3.884;2024-02-15T11:57:58;9.70;;;2.83;;
79456;SDS011;69494;43.654;3.884;2024-02-15T12:00:48;9.57;;;1.95;;
79456;SDS011;69494;43.654;3.884;2024-02-15T12:03:32;5.68;;;2.03;;
79456;SDS011;69494;43.654;3.884;2024-02-15T12:06:19;8.07;;;2.28;;
79456;SDS011;69494;43.654;3.884;2024-02-15T12:09:03;11.35;;;2.15;;
79456;SDS011;69494;43.654;3.884;2024-02-15T12:11:47;5.13;;;1.73;;
79456;SDS011;69494;43.654;3.884;2024-02-15T12:14:31;4.78;;;1.30;;
79456;SDS011;69494;43.654;3.884;2024-02-15T12:17:15;7.32;;;1.80;;
79456;SDS011;69494;43.654;3.884;2024-02-15T12:20:02;4.25;;;1.88;;
79456;SDS011;69494;43.654;3.884;2024-02-15T12:22:39;3.60;;;1.23;;
79456;SDS011;69494;43.654;3.884;2024-02-15T12:25:07;3.25;;;1.25;;
79456;SDS011;69494;43.654;3.884;2024-02-15T12:27:39;9.65;;;2.42;;
79456;SDS011;69494;43.654;3.884;2024-02-15T12:30:05;6.03;;;1.65;;
79456;SDS011;69494;43.654;3.884;2024-02-15T12:32:33;10.77;;;2.30;;
79456;SDS011;69494;43.654;3.884;2024-02-15T12:35:12;4.43;;;1.48;;
79456;SDS011;69494;43.654;3.884;2024-02-15T12:37:42;5.80;;;1.90;;
79456;SDS011;69494;43.654;3.884;2024-02-15T12:40:15;2.67;;;0.88;;
79456;SDS011;69494;43.654;3.884;2024-02-15T12:42:45;5.43;;;1.60;;
79456;SDS011;69494;43.654;3.884;2024-02-15T12:45:15;6.18;;;1.70;;
79456;SDS011;69494;43.654;3.884;2024-02-15T12:47:46;11.95;;;2.13;;
79456;SDS011;69494;43.654;3.884;2024-02-15T12:50:13;1.33;;;0.50;;
79456;SDS011;69494;43.654;3.884;2024-02-15T12:55:09;0.43;;;0.28;;
79456;SDS011;69494;43.654;3.884;2024-02-15T12:57:39;3.65;;;1.17;;
79456;SDS011;69494;43.654;3.884;2024-02-15T13:00:07;1.52;;;0.65;;
79456;SDS011;69494;43.654;3.884;2024-02-15T13:02:38;7.13;;;2.08;;
79456;SDS011;69494;43.654;3.884;2024-02-15T13:05:04;7.80;;;2.58;;
79456;SDS011;69494;43.654;3.884;2024-02-15T13:07:30;4.70;;;1.65;;
79456;SDS011;69494;43.654;3.884;2024-02-15T13:09:56;2.67;;;1.35;;
79456;SDS011;69494;43.654;3.884;2024-02-15T13:12:22;7.63;;;2.20;;
79456;SDS011;69494;43.654;3.884;2024-02-15T13:14:48;4.88;;;1.30;;
79456;SDS011;69494;43.654;3.884;2024-02-15T13:17:15;2.85;;;1.10;;
79456;SDS011;69494;43.654;3.884;2024-02-15T13:19:44;4.57;;;1.52;;
79456;SDS011;69494;43.654;3.884;2024-02-15T13:22:11;6.32;;;1.45;;
79456;SDS011;69494;43.654;3.884;2024-02-15T13:24:36;4.47;;;1.23;;
79456;SDS011;69494;43.654;3.884;2024-02-15T13:29:29;4.65;;;1.85;;
79456;SDS011;69494;43.654;3.884;2024-02-15T13:31:54;5.13;;;1.83;;
79456;SDS011;69494;43.654;3.884;2024-02-15T13:34:20;5.05;;;1.73;;
79456;SDS011;69494;43.654;3.884;2024-02-15T13:36:45;5.53;;;1.60;;
79456;SDS011;69494;43.654;3.884;2024-02-15T13:39:11;6.50;;;1.90;;
79456;SDS011;69494;43.654;3.884;2024-02-15T13:41:36;6.68;;;1.70;;
79456;SDS011;69494;43.654;3.884;2024-02-15T13:44:02;8.95;;;1.75;;
79456;SDS011;69494;43.654;3.884;2024-02-15T13:46:27;2.30;;;0.70;;
79456;SDS011;69494;43.654;3.884;2024-02-15T13:48:53;4.80;;;1.02;;
79456;SDS011;69494;43.654;3.884;2024-02-15T13:51:18;7.05;;;1.40;;
79456;SDS011;69494;43.654;3.884;2024-02-15T13:53:44;11.70;;;2.17;;
79456;SDS011;69494;43.654;3.884;2024-02-15T13:56:09;2.83;;;1.15;;
79456;SDS011;69494;43.654;3.884;2024-02-15T13:58:35;8.25;;;2.25;;
79456;SDS011;69494;43.654;3.884;2024-02-15T14:01:00;7.00;;;1.63;;
79456;SDS011;69494;43.654;3.884;2024-02-15T14:03:29;4.63;;;1.23;;
79456;SDS011;69494;43.654;3.884;2024-02-15T14:05:55;4.72;;;1.30;;
79456;SDS011;69494;43.654;3.884;2024-02-15T14:08:20;7.10;;;1.30;;
79456;SDS011;69494;43.654;3.884;2024-02-15T14:10:47;5.75;;;1.83;;
79456;SDS011;69494;43.654;3.884;2024-02-15T14:13:13;8.77;;;1.77;;
79456;SDS011;69494;43.654;3.884;2024-02-15T14:15:39;6.30;;;2.20;;
79456;SDS011;69494;43.654;3.884;2024-02-15T14:18:05;4.75;;;1.30;;
79456;SDS011;69494;43.654;3.884;2024-02-15T14:20:47;1.73;;;0.73;;
79456;SDS011;69494;43.654;3.884;2024-02-15T14:23:13;6.43;;;1.67;;
79456;SDS011;69494;43.654;3.884;2024-02-15T14:25:39;6.53;;;1.35;;
79456;SDS011;69494;43.654;3.884;2024-02-15T14:28:04;3.63;;;1.48;;
79456;SDS011;69494;43.654;3.884;2024-02-15T14:30:33;9.95;;;1.90;;
79456;SDS011;69494;43.654;3.884;2024-02-15T14:33:17;7.18;;;1.75;;
79456;SDS011;69494;43.654;3.884;2024-02-15T14:35:44;6.72;;;1.52;;
79456;SDS011;69494;43.654;3.884;2024-02-15T14:38:11;9.55;;;1.65;;
79456;SDS011;69494;43.654;3.884;2024-02-15T14:43:11;8.70;;;2.53;;
79456;SDS011;69494;43.654;3.884;2024-02-15T14:45:37;6.25;;;1.55;;
79456;SDS011;69494;43.654;3.884;2024-02-15T14:48:03;5.97;;;1.63;;
79456;SDS011;69494;43.654;3.884;2024-02-15T14:50:29;6.10;;;1.17;;
79456;SDS011;69494;43.654;3.884;2024-02-15T14:52:55;5.88;;;1.50;;
79456;SDS011;69494;43.654;3.884;2024-02-15T14:55:21;10.52;;;2.10;;
79456;SDS011;69494;43.654;3.884;2024-02-15T14:57:47;7.95;;;2.15;;
79456;SDS011;69494;43.654;3.884;2024-02-15T15:00:13;10.98;;;2.53;;
79456;SDS011;69494;43.654;3.884;2024-02-15T15:02:42;6.15;;;1.60;;
79456;SDS011;69494;43.654;3.884;2024-02-15T15:05:09;3.65;;;1.13;;
79456;SDS011;69494;43.654;3.884;2024-02-15T15:07:53;5.45;;;1.45;;
79456;SDS011;69494;43.654;3.884;2024-02-15T15:10:37;16.83;;;2.13;;